createdAt,value
2018-09-25T00:00:05.921Z,91.80
2018-09-25T00:01:06.049Z,91.85
2018-09-25T00:04:06.207Z,91.75
2018-09-25T00:06:05.867Z,91.19
2018-09-25T00:07:05.836Z,91.09
2018-09-25T00:08:05.821Z,91.09
2018-09-25T00:09:05.789Z,91.47
2018-09-25T00:10:05.819Z,91.47
2018-09-25T00:11:06.050Z,91.14
2018-09-25T00:12:05.724Z,91.19
2018-09-25T00:13:05.706Z,91.47
2018-09-25T00:14:05.682Z,91.14
2018-09-25T00:15:05.774Z,91.52
2018-09-25T00:16:05.639Z,91.75
2018-09-25T00:17:05.622Z,91.71
2018-09-25T00:18:05.894Z,91.75
2018-09-25T00:19:05.572Z,91.52
2018-09-25T00:20:05.556Z,91.94
2018-09-25T00:21:05.529Z,91.75
2018-09-25T00:22:05.504Z,91.75
2018-09-25T00:23:05.410Z,92.71
2018-09-25T00:24:05.386Z,92.71
2018-09-25T00:25:06.051Z,92.71
2018-09-25T00:26:05.354Z,92.71
2018-09-25T00:27:05.426Z,92.13
2018-09-25T00:28:05.298Z,92.13
2018-09-25T00:29:05.323Z,92.04
2018-09-25T00:30:05.255Z,92.13
2018-09-25T00:31:05.293Z,92.04
2018-09-25T00:32:05.509Z,91.85
2018-09-25T00:33:05.185Z,92.51
2018-09-25T00:34:05.314Z,92.51
2018-09-25T00:35:05.144Z,92.61
2018-09-25T00:36:05.111Z,92.80
2018-09-25T00:37:05.137Z,92.42
2018-09-25T00:38:05.365Z,92.51
2018-09-25T00:39:05.061Z,92.71
2018-09-25T00:40:05.025Z,92.51
2018-09-25T00:41:05.005Z,92.71
2018-09-25T00:42:04.982Z,92.42
2018-09-25T00:43:05.005Z,92.71
2018-09-25T00:44:05.233Z,92.61
2018-09-25T00:45:04.929Z,92.61
2018-09-25T00:46:04.900Z,92.51
2018-09-25T00:47:04.923Z,92.51
2018-09-25T00:48:04.843Z,92.51
2018-09-25T00:49:04.971Z,92.71
2018-09-25T00:50:05.102Z,92.71
2018-09-25T00:51:04.777Z,92.99
2018-09-25T00:52:04.759Z,92.42
2018-09-25T00:53:04.739Z,92.99
2018-09-25T00:54:04.722Z,92.61
2018-09-25T00:55:04.748Z,93.84
2018-09-25T00:56:04.974Z,93.46
2018-09-25T00:57:04.643Z,93.46
2018-09-25T00:59:04.599Z,93.27
2018-09-25T01:00:04.578Z,93.46
2018-09-25T01:01:04.856Z,93.08
2018-09-25T01:02:04.833Z,93.27
2018-09-25T01:03:04.511Z,93.37
2018-09-25T01:04:04.487Z,93.56
2018-09-25T01:05:04.466Z,93.37
2018-09-25T01:06:04.444Z,93.94
2018-09-25T01:07:04.481Z,94.13
2018-09-25T01:08:04.702Z,94.13
2018-09-25T01:09:04.378Z,93.65
2018-09-25T01:10:04.361Z,94.13
2018-09-25T01:11:04.334Z,93.75
2018-09-25T01:14:04.630Z,93.94
2018-09-25T01:15:04.256Z,93.18
2018-09-25T01:16:04.236Z,93.84
2018-09-25T01:18:04.193Z,93.94
2018-09-25T01:19:04.198Z,93.46
2018-09-25T01:20:04.300Z,93.75
2018-09-25T01:21:04.420Z,93.75
2018-09-25T01:23:04.069Z,93.46
2018-09-25T01:24:04.042Z,93.56
2018-09-25T01:25:04.024Z,93.46
2018-09-25T01:26:04.060Z,94.13
2018-09-25T01:27:03.986Z,94.03
2018-09-25T01:29:04.246Z,93.37
2018-09-25T01:30:03.916Z,93.94
2018-09-25T01:31:03.907Z,93.65
2018-09-25T01:32:04.174Z,93.37
2018-09-25T01:33:03.850Z,93.56
2018-09-25T01:34:03.886Z,93.27
2018-09-25T01:35:04.118Z,93.27
2018-09-25T01:36:04.079Z,93.37
2018-09-25T01:37:03.758Z,93.46
2018-09-25T01:38:03.782Z,93.46
2018-09-25T01:39:03.715Z,93.27
2018-09-25T01:40:03.695Z,93.23
2018-09-25T01:41:03.669Z,93.04
2018-09-25T01:42:03.668Z,93.18
2018-09-25T01:43:03.930Z,92.80
2018-09-25T01:44:03.659Z,93.18
2018-09-25T01:45:03.582Z,92.47
2018-09-25T01:46:03.634Z,92.56
2018-09-25T01:48:03.512Z,92.18
2018-09-25T01:49:03.509Z,92.28
2018-09-25T01:50:03.825Z,92.37
2018-09-25T01:51:03.455Z,92.47
2018-09-25T01:52:03.436Z,92.47
2018-09-25T01:53:03.403Z,92.28
2018-09-25T01:54:03.388Z,91.89
2018-09-25T01:55:03.375Z,91.80
2018-09-25T01:57:03.611Z,92.18
2018-09-25T01:58:03.300Z,91.80
2018-09-25T01:59:03.284Z,91.80
2018-09-25T02:00:03.252Z,91.80
2018-09-25T02:02:03.271Z,91.71
2018-09-25T02:03:03.180Z,91.71
2018-09-25T02:04:03.457Z,91.80
2018-09-25T02:05:03.140Z,92.09
2018-09-25T02:06:03.115Z,91.61
2018-09-25T02:07:03.094Z,91.33
2018-09-25T02:08:03.381Z,91.04
2018-09-25T02:09:03.059Z,91.33
2018-09-25T02:10:03.333Z,91.24
2018-09-25T02:11:03.008Z,90.66
2018-09-25T02:12:02.989Z,90.95
2018-09-25T02:13:02.961Z,90.95
2018-09-25T02:14:02.991Z,91.14
2018-09-25T02:15:02.912Z,90.85
2018-09-25T02:16:03.193Z,91.33
2018-09-25T02:17:02.868Z,90.85
2018-09-25T02:19:02.827Z,90.76
2018-09-25T02:20:02.860Z,90.76
2018-09-25T02:21:02.781Z,91.04
2018-09-25T02:22:03.060Z,90.95
2018-09-25T02:23:02.736Z,90.95
2018-09-25T02:24:02.714Z,90.76
2018-09-25T02:25:02.692Z,90.85
2018-09-25T02:26:02.719Z,91.04
2018-09-25T02:27:02.651Z,90.95
2018-09-25T02:28:02.927Z,91.04
2018-09-25T02:29:02.607Z,90.66
2018-09-25T02:30:02.642Z,90.85
2018-09-25T02:33:02.569Z,91.04
2018-09-25T02:35:02.781Z,90.85
2018-09-25T02:38:02.524Z,90.95
2018-09-25T02:39:02.686Z,90.66
2018-09-25T02:40:02.363Z,91.04
2018-09-25T02:41:02.347Z,91.14
2018-09-25T02:42:02.616Z,91.14
2018-09-25T02:43:02.290Z,91.04
2018-09-25T02:44:02.270Z,91.04
2018-09-25T02:45:02.304Z,90.85
2018-09-25T02:46:02.300Z,91.04
2018-09-25T02:47:02.203Z,90.76
2018-09-25T02:48:02.188Z,90.95
2018-09-25T02:49:02.462Z,90.95
2018-09-25T02:50:02.135Z,90.47
2018-09-25T02:51:02.175Z,90.47
2018-09-25T02:52:02.098Z,90.47
2018-09-25T02:53:02.073Z,90.38
2018-09-25T02:54:02.056Z,90.47
2018-09-25T02:55:02.034Z,90.28
2018-09-25T02:56:02.380Z,90.38
2018-09-25T02:57:02.137Z,90.28
2018-09-25T02:58:01.960Z,90.38
2018-09-25T02:59:01.937Z,89.81
2018-09-25T03:00:01.921Z,89.62
2018-09-25T03:01:01.896Z,89.72
2018-09-25T03:02:01.873Z,89.72
2018-09-25T03:03:02.195Z,89.81
2018-09-25T03:04:01.840Z,89.81
2018-09-25T03:06:01.786Z,90.00
2018-09-25T03:07:01.764Z,90.09
2018-09-25T03:08:01.756Z,89.81
2018-09-25T03:09:01.762Z,89.72
2018-09-25T03:10:01.994Z,90.00
2018-09-25T03:11:01.673Z,89.43
2018-09-25T03:12:01.656Z,89.90
2018-09-25T03:13:01.636Z,89.90
2018-09-25T03:14:01.602Z,89.81
2018-09-25T03:15:01.626Z,89.72
2018-09-25T03:16:01.555Z,90.00
2018-09-25T03:17:01.833Z,89.72
2018-09-25T03:18:01.518Z,89.90
2018-09-25T03:19:01.542Z,90.00
2018-09-25T03:20:01.466Z,89.62
2018-09-25T03:21:01.497Z,89.72
2018-09-25T03:22:01.522Z,89.90
2018-09-25T03:23:01.405Z,89.14
2018-09-25T03:25:01.357Z,88.95
2018-09-25T03:26:01.333Z,88.86
2018-09-25T03:27:01.361Z,89.14
2018-09-25T03:28:01.285Z,88.86
2018-09-25T03:29:01.260Z,88.76
2018-09-25T03:30:01.639Z,88.48
2018-09-25T03:31:01.215Z,88.76
2018-09-25T03:32:01.202Z,88.48
2018-09-25T03:33:01.393Z,88.29
2018-09-25T03:34:01.151Z,88.57
2018-09-25T03:35:01.136Z,88.39
2018-09-25T03:36:01.405Z,88.57
2018-09-25T03:37:01.090Z,88.10
2018-09-25T03:39:01.090Z,87.91
2018-09-25T03:40:01.020Z,88.20
2018-09-25T03:41:00.991Z,88.20
2018-09-25T03:42:01.270Z,88.01
2018-09-25T03:43:00.949Z,88.20
2018-09-25T03:44:00.932Z,87.82
2018-09-25T03:45:00.968Z,87.72
2018-09-25T03:46:00.889Z,87.91
2018-09-25T03:47:01.172Z,88.29
2018-09-25T03:48:01.143Z,87.82
2018-09-25T03:49:00.817Z,87.15
2018-09-25T03:50:00.793Z,87.24
2018-09-25T03:52:01.410Z,86.77
2018-09-25T03:53:00.728Z,86.87
2018-09-25T03:54:01.000Z,86.30
2018-09-25T03:55:00.784Z,86.44
2018-09-25T03:56:00.673Z,86.68
2018-09-25T03:57:00.633Z,86.54
2018-09-25T03:58:00.702Z,86.30
2018-09-25T03:59:00.596Z,86.30
2018-09-25T04:00:00.869Z,86.20
2018-09-25T04:01:00.548Z,86.30
2018-09-25T04:02:00.527Z,86.54
2018-09-25T04:03:00.503Z,86.49
2018-09-25T04:04:00.572Z,85.72
2018-09-25T04:05:00.464Z,85.82
2018-09-25T04:09:00.980Z,85.82
2018-09-25T04:11:00.329Z,85.35
2018-09-25T04:14:00.264Z,85.25
2018-09-25T04:15:00.667Z,85.35
2018-09-25T04:17:00.210Z,85.53
2018-09-25T04:18:00.166Z,85.53
2018-09-25T04:19:00.156Z,85.44
2018-09-25T04:20:00.117Z,85.53
2018-09-25T04:21:00.089Z,85.53
2018-09-25T04:22:00.422Z,85.16
2018-09-25T04:23:00.046Z,85.44
2018-09-25T04:24:00.029Z,85.91
2018-09-25T04:25:00.000Z,85.72
2018-09-25T04:25:59.982Z,85.53
2018-09-25T04:26:59.963Z,85.72
2018-09-25T04:29:00.265Z,86.68
2018-09-25T04:29:59.926Z,86.30
2018-09-25T04:30:59.866Z,86.58
2018-09-25T04:31:59.845Z,86.49
2018-09-25T04:32:59.830Z,86.68
2018-09-25T04:33:59.798Z,86.68
2018-09-25T04:34:59.824Z,86.87
2018-09-25T04:36:00.049Z,86.87
2018-09-25T04:36:59.745Z,86.68
2018-09-25T04:38:00.012Z,87.24
2018-09-25T04:38:59.789Z,87.24
2018-09-25T04:39:59.658Z,87.43
2018-09-25T04:40:59.695Z,86.58
2018-09-25T04:41:59.617Z,87.24
2018-09-25T04:42:59.903Z,87.24
2018-09-25T04:43:59.581Z,87.82
2018-09-25T04:44:59.838Z,87.34
2018-09-25T04:45:59.538Z,87.62
2018-09-25T04:46:59.854Z,87.24
2018-09-25T04:47:59.620Z,87.24
2018-09-25T04:48:59.460Z,87.24
2018-09-25T04:50:00.510Z,87.24
2018-09-25T04:50:59.493Z,87.34
2018-09-25T04:51:59.920Z,87.43
2018-09-25T04:52:59.422Z,87.34
2018-09-25T04:53:59.368Z,88.57
2018-09-25T04:54:59.402Z,88.10
2018-09-25T04:58:59.405Z,88.29
2018-09-25T04:59:59.226Z,87.91
2018-09-25T05:00:59.316Z,87.86
2018-09-25T05:01:59.194Z,88.01
2018-09-25T05:03:00.091Z,87.91
2018-09-25T05:04:00.493Z,87.82
2018-09-25T05:05:00.393Z,88.10
2018-09-25T05:05:59.954Z,87.91
2018-09-25T05:06:59.634Z,88.15
2018-09-25T05:07:59.501Z,88.10
2018-09-25T05:08:59.015Z,88.10
2018-09-25T05:09:59.295Z,87.91
2018-09-25T05:10:59.037Z,87.91
2018-09-25T05:11:58.969Z,87.91
2018-09-25T05:12:58.933Z,87.82
2018-09-25T05:15:00.159Z,87.82
2018-09-25T05:15:58.952Z,87.62
2018-09-25T05:16:59.266Z,87.72
2018-09-25T05:17:58.829Z,87.82
2018-09-25T05:18:58.798Z,87.82
2018-09-25T05:19:58.791Z,87.91
2018-09-25T05:22:59.066Z,87.82
2018-09-25T05:23:58.689Z,87.05
2018-09-25T05:24:58.792Z,87.15
2018-09-25T05:25:58.645Z,87.53
2018-09-25T05:26:58.627Z,87.24
2018-09-25T05:27:58.708Z,86.87
2018-09-25T05:28:58.633Z,87.05
2018-09-25T05:29:58.854Z,87.34
2018-09-25T05:30:58.589Z,86.96
2018-09-25T05:31:58.518Z,86.68
2018-09-25T05:32:58.493Z,86.68
2018-09-25T05:33:58.470Z,86.87
2018-09-25T05:34:58.497Z,86.96
2018-09-25T05:36:58.708Z,86.58
2018-09-25T05:37:58.389Z,86.49
2018-09-25T05:38:58.385Z,86.96
2018-09-25T05:39:58.339Z,86.96
2018-09-25T05:40:58.473Z,86.87
2018-09-25T05:41:58.295Z,86.77
2018-09-25T05:42:58.327Z,86.30
2018-09-25T05:43:58.568Z,86.30
2018-09-25T05:44:58.236Z,86.39
2018-09-25T05:45:58.306Z,86.49
2018-09-25T05:46:58.236Z,86.01
2018-09-25T05:48:58.172Z,86.49
2018-09-25T05:49:58.426Z,86.39
2018-09-25T05:50:58.100Z,86.20
2018-09-25T05:51:58.077Z,86.39
2018-09-25T05:52:58.112Z,86.30
2018-09-25T05:53:58.039Z,86.30
2018-09-25T05:54:58.017Z,86.39
2018-09-25T05:55:58.297Z,86.11
2018-09-25T05:56:58.252Z,86.24
2018-09-25T05:57:58.421Z,86.77
2018-09-25T05:58:57.995Z,86.49
2018-09-25T05:59:57.900Z,86.58
2018-09-25T06:00:57.933Z,86.49
2018-09-25T06:01:57.862Z,86.30
2018-09-25T06:02:58.143Z,86.49
2018-09-25T06:03:57.828Z,86.49
2018-09-25T06:04:57.847Z,86.39
2018-09-25T06:05:57.775Z,86.49
2018-09-25T06:06:57.757Z,86.49
2018-09-25T06:08:58.017Z,86.34
2018-09-25T06:09:57.693Z,86.24
2018-09-25T06:10:57.720Z,87.19
2018-09-25T06:11:57.707Z,86.34
2018-09-25T06:14:57.578Z,87.76
2018-09-25T06:15:57.860Z,87.38
2018-09-25T06:16:57.585Z,87.57
2018-09-25T06:17:57.549Z,88.05
2018-09-25T06:18:57.504Z,87.29
2018-09-25T06:19:57.476Z,87.67
2018-09-25T06:20:57.482Z,87.67
2018-09-25T06:21:57.786Z,87.86
2018-09-25T06:22:57.494Z,88.53
2018-09-25T06:23:57.511Z,88.95
2018-09-25T06:24:57.495Z,89.14
2018-09-25T06:25:57.401Z,89.04
2018-09-25T06:26:57.539Z,89.23
2018-09-25T06:28:57.704Z,89.42
2018-09-25T06:29:57.272Z,90.28
2018-09-25T06:30:57.326Z,90.37
2018-09-25T06:31:57.298Z,90.47
2018-09-25T06:32:57.264Z,91.23
2018-09-25T06:33:57.997Z,90.47
2018-09-25T06:34:57.808Z,91.13
2018-09-25T06:35:57.183Z,90.56
2018-09-25T06:36:57.251Z,90.28
2018-09-25T06:37:57.159Z,90.47
2018-09-25T06:38:57.073Z,90.56
2018-09-25T06:39:57.323Z,91.04
2018-09-25T06:40:57.435Z,91.13
2018-09-25T06:41:57.071Z,90.94
2018-09-25T06:42:57.009Z,91.04
2018-09-25T06:43:57.019Z,91.71
2018-09-25T06:44:57.050Z,91.13
2018-09-25T06:45:57.029Z,91.56
2018-09-25T06:46:58.278Z,92.13
2018-09-25T06:47:56.981Z,92.13
2018-09-25T06:48:56.865Z,92.13
2018-09-25T06:49:56.939Z,91.75
2018-09-25T06:50:56.819Z,92.03
2018-09-25T06:51:56.788Z,92.89
2018-09-25T06:52:57.072Z,92.22
2018-09-25T07:00:56.625Z,93.08
2018-09-25T07:01:56.609Z,93.55
2018-09-25T07:04:56.629Z,93.89
2018-09-25T07:25:56.101Z,98.94
2018-09-25T07:26:56.077Z,98.46
2018-09-25T07:27:56.110Z,98.65
2018-09-25T07:28:56.087Z,99.03
2018-09-25T07:29:56.013Z,98.65
2018-09-25T07:30:56.054Z,99.03
2018-09-25T07:35:55.885Z,99.84
2018-09-25T07:36:55.899Z,99.99
2018-09-25T07:37:56.146Z,99.99
2018-09-25T07:38:55.849Z,99.99
2018-09-25T07:39:55.803Z,99.99
2018-09-25T07:43:56.033Z,99.99
2018-09-25T07:44:55.713Z,99.99
2018-09-25T07:45:55.722Z,99.99
2018-09-25T07:46:55.729Z,99.99
2018-09-25T07:47:55.658Z,99.99
2018-09-25T07:48:55.644Z,99.99
2018-09-25T07:49:55.920Z,99.99
2018-09-25T07:50:55.598Z,99.99
2018-09-25T07:51:55.587Z,99.99
2018-09-25T07:52:55.605Z,99.99
2018-09-25T07:55:55.866Z,99.99
2018-09-25T07:57:55.458Z,99.99
2018-09-25T07:58:55.741Z,99.99
2018-09-25T07:59:55.419Z,99.99
2018-09-25T08:00:55.410Z,99.99
2018-09-25T08:03:55.351Z,99.99
2018-09-25T08:05:55.318Z,99.99
2018-09-25T08:06:55.291Z,99.99
2018-09-25T08:07:55.274Z,99.99
2018-09-25T08:08:55.575Z,99.99
2018-09-25T08:09:55.244Z,99.99
2018-09-25T08:10:55.283Z,99.99
2018-09-25T08:11:55.216Z,99.99
2018-09-25T08:12:55.194Z,99.99
2018-09-25T08:13:55.172Z,99.99
2018-09-25T08:16:55.227Z,99.99
2018-09-25T08:18:55.082Z,99.99
2018-09-25T08:19:55.071Z,99.99
2018-09-25T08:20:55.104Z,99.99
2018-09-25T08:21:55.033Z,99.99
2018-09-25T08:22:55.355Z,99.99
2018-09-25T08:23:55.038Z,99.99
2018-09-25T08:24:54.977Z,99.99
2018-09-25T08:25:54.991Z,99.99
2018-09-25T08:27:54.922Z,99.99
2018-09-25T08:28:55.251Z,99.85
2018-09-25T08:32:07.580Z,99.99
2018-09-25T08:32:54.834Z,99.66
2018-09-25T08:33:54.816Z,99.66
2018-09-25T08:35:55.092Z,99.85
2018-09-25T08:38:54.883Z,99.23
2018-09-25T08:39:54.724Z,97.13
2018-09-25T08:40:54.756Z,97.52
2018-09-25T08:41:54.988Z,97.89
2018-09-25T08:43:54.670Z,98.66
2018-09-25T08:51:54.540Z,95.41
2018-09-25T08:52:54.576Z,94.22
2018-09-25T08:54:54.784Z,96.08
2018-09-25T08:57:54.495Z,92.83
2018-09-25T08:58:54.473Z,93.69
2018-09-25T08:59:54.503Z,93.88
2018-09-25T09:01:54.668Z,91.11
2018-09-25T09:02:54.361Z,89.77
2018-09-25T09:03:54.345Z,89.10
2018-09-25T09:04:54.669Z,89.10
2018-09-25T09:05:54.326Z,87.66
2018-09-25T09:06:54.304Z,85.85
2018-09-25T09:07:54.591Z,89.48
2018-09-25T09:08:54.265Z,84.52
2018-09-25T09:09:54.268Z,83.94
2018-09-25T09:10:54.282Z,82.12
2018-09-25T09:11:54.228Z,81.84
2018-09-25T09:12:54.207Z,81.45
2018-09-25T09:13:54.495Z,83.22
2018-09-25T09:14:54.178Z,82.45
2018-09-25T09:15:54.211Z,81.40
2018-09-25T09:17:54.757Z,77.19
2018-09-25T09:19:54.451Z,79.10
2018-09-25T09:24:54.031Z,74.41
2018-09-25T09:25:54.324Z,75.56
2018-09-25T09:26:54.000Z,72.98
2018-09-25T09:28:54.035Z,72.41
2018-09-25T09:30:53.967Z,72.88
2018-09-25T09:31:54.251Z,73.27
2018-09-25T09:32:53.925Z,71.39
2018-09-25T09:33:53.921Z,71.39
2018-09-25T09:34:53.944Z,70.91
2018-09-25T09:35:53.951Z,72.06
2018-09-25T09:36:53.874Z,72.29
2018-09-25T09:37:54.157Z,70.76
2018-09-25T09:38:53.834Z,71.01
2018-09-25T09:40:53.914Z,73.84
2018-09-25T09:41:53.993Z,72.69
2018-09-25T09:43:54.091Z,74.61
2018-09-25T09:44:53.758Z,75.95
2018-09-25T09:45:53.751Z,75.98
2018-09-25T09:46:53.861Z,76.84
2018-09-25T09:47:53.949Z,74.55
2018-09-25T09:48:53.710Z,73.05
2018-09-25T09:49:53.767Z,72.29
2018-09-25T09:50:53.995Z,71.66
2018-09-25T09:51:53.816Z,70.12
2018-09-25T09:52:53.721Z,71.17
2018-09-25T09:53:53.679Z,74.58
2018-09-25T09:54:53.642Z,73.24
2018-09-25T09:55:53.613Z,72.86
2018-09-25T09:56:53.922Z,72.19
2018-09-25T09:57:53.607Z,71.14
2018-09-25T09:58:53.631Z,72.16
2018-09-25T09:59:53.811Z,74.80
2018-09-25T10:00:53.572Z,78.43
2018-09-25T10:01:53.538Z,81.21
2018-09-25T10:02:53.843Z,79.87
2018-09-25T10:03:53.763Z,78.81
2018-09-25T10:04:54.023Z,75.73
2018-09-25T10:05:53.515Z,74.49
2018-09-25T10:06:53.691Z,73.95
2018-09-25T10:07:53.466Z,73.57
2018-09-25T10:08:53.454Z,73.41
2018-09-25T10:09:53.737Z,72.20
2018-09-25T10:10:53.483Z,68.18
2018-09-25T10:11:53.417Z,67.02
2018-09-25T10:12:53.423Z,68.24
2018-09-25T10:13:53.391Z,69.51
2018-09-25T10:14:53.489Z,71.91
2018-09-25T10:15:53.701Z,73.79
2018-09-25T10:16:53.411Z,74.07
2018-09-25T10:17:53.354Z,73.50
2018-09-25T10:18:53.500Z,72.83
2018-09-25T10:19:53.388Z,74.16
2018-09-25T10:21:53.343Z,71.84
2018-09-25T10:22:53.676Z,70.31
2018-09-25T10:27:53.246Z,71.11
2018-09-25T10:28:53.297Z,70.15
2018-09-25T10:29:53.514Z,71.46
2018-09-25T10:30:53.228Z,71.42
2018-09-25T10:31:53.219Z,69.80
2018-09-25T10:32:53.528Z,70.28
2018-09-25T10:33:53.435Z,72.16
2018-09-25T10:34:53.216Z,71.39
2018-09-25T10:35:53.451Z,71.48
2018-09-25T10:36:53.157Z,71.45
2018-09-25T10:37:53.142Z,71.58
2018-09-25T10:38:53.117Z,71.71
2018-09-25T10:39:53.305Z,70.70
2018-09-25T10:40:53.147Z,68.01
2018-09-25T10:41:53.385Z,65.46
2018-09-25T10:42:53.078Z,63.64
2018-09-25T10:43:53.172Z,64.72
2018-09-25T10:44:53.096Z,67.50
2018-09-25T10:45:53.032Z,66.61
2018-09-25T10:46:53.080Z,66.80
2018-09-25T10:47:53.331Z,68.29
2018-09-25T10:48:52.994Z,68.65
2018-09-25T10:49:53.050Z,70.79
2018-09-25T10:50:53.109Z,68.81
2018-09-25T10:51:52.964Z,68.59
2018-09-25T10:52:53.421Z,68.46
2018-09-25T10:53:53.307Z,69.60
2018-09-25T10:54:52.928Z,68.36
2018-09-25T10:55:53.528Z,68.07
2018-09-25T10:56:52.905Z,69.19
2018-09-25T10:57:52.939Z,68.04
2018-09-25T10:58:52.949Z,70.72
2018-09-25T10:59:53.173Z,72.34
2018-09-25T11:00:52.959Z,71.97
2018-09-25T11:01:52.849Z,71.39
2018-09-25T11:02:53.064Z,71.58
2018-09-25T11:03:53.073Z,73.09
2018-09-25T11:06:52.848Z,65.36
2018-09-25T11:07:52.837Z,63.48
2018-09-25T11:08:52.760Z,64.18
2018-09-25T11:09:52.814Z,62.19
2018-09-25T11:10:52.811Z,61.78
2018-09-25T11:11:52.736Z,63.19
2018-09-25T11:12:53.085Z,62.99
2018-09-25T11:16:52.732Z,58.22
2018-09-25T11:17:52.693Z,57.50
2018-09-25T11:18:52.720Z,59.48
2018-09-25T11:19:53.004Z,58.62
2018-09-25T11:26:52.721Z,58.42
2018-09-25T11:27:52.584Z,59.41
2018-09-25T11:29:52.610Z,61.08
2018-09-25T11:31:52.544Z,64.85
2018-09-25T11:32:52.960Z,65.14
2018-09-25T11:33:52.557Z,65.33
2018-09-25T11:36:52.542Z,66.54
2018-09-25T11:37:52.466Z,66.93
2018-09-25T11:38:52.773Z,67.31
2018-09-25T11:39:52.456Z,66.83
2018-09-25T11:41:52.433Z,69.99
2018-09-25T11:42:52.687Z,72.00
2018-09-25T11:43:52.650Z,69.03
2018-09-25T11:44:52.720Z,67.50
2018-09-25T11:45:52.697Z,67.79
2018-09-25T11:46:52.497Z,68.07
2018-09-25T11:47:52.581Z,68.36
2018-09-25T11:48:52.416Z,68.07
2018-09-25T11:49:52.376Z,67.72
2018-09-25T11:50:52.839Z,66.64
2018-09-25T11:51:52.640Z,62.65
2018-09-25T11:52:52.679Z,61.30
2018-09-25T11:53:52.569Z,61.75
2018-09-25T11:54:52.571Z,62.77
2018-09-25T11:55:52.292Z,63.64
2018-09-25T11:56:52.257Z,63.29
2018-09-25T11:57:52.554Z,62.33
2018-09-25T11:58:52.372Z,64.31
2018-09-25T11:59:52.221Z,66.71
2018-09-25T12:01:52.239Z,64.22
2018-09-25T12:02:52.733Z,65.05
2018-09-25T12:03:55.635Z,64.37
2018-09-25T12:04:52.161Z,65.05
2018-09-25T12:05:52.227Z,65.20
2018-09-25T12:06:52.212Z,66.54
2018-09-25T12:07:52.968Z,66.83
2018-09-25T12:08:52.408Z,66.54
2018-09-25T12:09:52.394Z,66.74
2018-09-25T12:10:52.188Z,65.68
2018-09-25T12:11:52.128Z,65.17
2018-09-25T12:12:52.150Z,63.99
2018-09-25T12:13:52.092Z,61.75
2018-09-25T12:15:52.330Z,62.19
2018-09-25T12:16:52.008Z,60.11
2018-09-25T12:17:52.028Z,60.91
2018-09-25T12:18:52.031Z,57.93
2018-09-25T12:19:52.095Z,59.25
2018-09-25T12:20:52.500Z,59.51
2018-09-25T12:21:52.252Z,60.25
2018-09-25T12:22:51.935Z,61.08
2018-09-25T12:24:52.008Z,63.54
2018-09-25T12:25:51.948Z,63.89
2018-09-25T12:26:51.958Z,64.95
2018-09-25T12:27:52.180Z,67.44
2018-09-25T12:28:51.868Z,66.38
2018-09-25T12:29:51.861Z,66.09
2018-09-25T12:30:51.898Z,65.71
2018-09-25T12:31:51.838Z,66.45
2018-09-25T12:32:51.849Z,66.83
2018-09-25T12:33:52.140Z,68.55
2018-09-25T12:34:51.796Z,69.51
2018-09-25T12:35:52.148Z,67.11
2018-09-25T12:36:51.843Z,68.36
2018-09-25T12:37:51.900Z,66.74
2018-09-25T12:38:51.785Z,67.21
2018-09-25T12:39:52.035Z,67.31
2018-09-25T12:40:51.739Z,67.50
2018-09-25T12:41:51.736Z,66.83
2018-09-25T12:42:51.750Z,66.64
2018-09-25T12:43:51.699Z,68.33
2018-09-25T12:44:51.761Z,68.80
2018-09-25T12:45:52.226Z,68.17
2018-09-25T12:46:51.691Z,71.52
2018-09-25T12:47:51.629Z,69.99
2018-09-25T12:48:51.701Z,69.70
2018-09-25T12:50:51.612Z,66.51
2018-09-25T12:51:51.880Z,66.61
2018-09-25T12:52:51.576Z,66.26
2018-09-25T12:53:51.629Z,63.06
2018-09-25T12:54:51.680Z,61.81
2018-09-25T12:55:51.524Z,60.44
2018-09-25T12:56:51.510Z,60.25
2018-09-25T12:57:51.803Z,61.27
2018-09-25T12:58:51.489Z,62.77
2018-09-25T12:59:51.475Z,63.26
2018-09-25T13:00:51.508Z,64.37
2018-09-25T13:01:51.447Z,63.99
2018-09-25T13:03:51.768Z,61.85
2018-09-25T13:04:51.459Z,62.52
2018-09-25T13:05:51.420Z,62.07
2018-09-25T13:09:51.636Z,60.60
2018-09-25T13:10:51.341Z,60.41
2018-09-25T13:11:51.343Z,62.20
2018-09-25T13:12:51.359Z,62.59
2018-09-25T13:13:51.304Z,61.53
2018-09-25T13:14:51.357Z,61.18
2018-09-25T13:15:51.682Z,59.70
2018-09-25T13:16:51.252Z,57.71
2018-09-25T13:17:51.279Z,57.20
2018-09-25T13:18:51.308Z,56.14
2018-09-25T13:19:51.214Z,55.71
2018-09-25T13:20:51.249Z,54.97
2018-09-25T13:21:51.506Z,54.49
2018-09-25T13:22:51.183Z,52.85
2018-09-25T13:23:51.270Z,52.89
2018-09-25T13:24:51.216Z,54.93
2018-09-25T13:25:51.141Z,55.77
2018-09-25T13:26:51.787Z,57.65
2018-09-25T13:27:53.553Z,60.22
2018-09-25T13:29:51.816Z,60.28
2018-09-25T13:30:51.840Z,61.53
2018-09-25T13:31:51.816Z,62.93
2018-09-25T13:32:51.182Z,62.74
2018-09-25T13:33:51.443Z,63.60
2018-09-25T13:34:51.069Z,63.99
2018-09-25T13:35:51.031Z,64.18
2018-09-25T13:36:51.085Z,64.85
2018-09-25T13:37:51.228Z,63.60
2018-09-25T13:38:51.005Z,61.15
2018-09-25T13:39:51.279Z,60.19
2018-09-25T13:40:51.739Z,61.53
2018-09-25T13:41:50.977Z,60.44
2018-09-25T13:42:51.125Z,58.64
2018-09-25T13:44:50.923Z,61.08
2018-09-25T13:45:51.704Z,62.55
2018-09-25T13:46:50.974Z,61.59
2018-09-25T13:47:50.992Z,62.62
2018-09-25T13:48:50.915Z,60.72
2018-09-25T13:50:50.895Z,59.58
2018-09-25T13:51:51.128Z,60.60
2018-09-25T13:52:50.817Z,62.71
2018-09-25T13:53:50.942Z,63.45
2018-09-25T13:55:50.879Z,66.09
2018-09-25T13:56:50.786Z,66.38
2018-09-25T13:57:51.079Z,66.67
2018-09-25T13:58:50.813Z,66.58
2018-09-25T13:59:50.729Z,66.38
2018-09-25T14:00:50.718Z,65.17
2018-09-25T14:01:50.854Z,66.38
2018-09-25T14:02:50.736Z,67.05
2018-09-25T14:03:51.031Z,66.77
2018-09-25T14:04:50.739Z,66.86
2018-09-25T14:05:50.676Z,68.07
2018-09-25T14:06:50.665Z,68.94
2018-09-25T14:07:50.698Z,69.23
2018-09-25T14:08:50.747Z,68.36
2018-09-25T14:09:50.953Z,69.03
2018-09-25T14:10:50.585Z,69.76
2018-09-25T14:11:50.640Z,68.90
2018-09-25T14:12:50.550Z,69.95
2018-09-25T14:13:50.593Z,70.72
2018-09-25T14:15:50.825Z,70.24
2018-09-25T14:16:50.599Z,71.48
2018-09-25T14:17:50.504Z,71.97
2018-09-25T14:18:50.479Z,73.02
2018-09-25T14:19:50.556Z,73.88
2018-09-25T14:20:50.503Z,73.02
2018-09-25T14:21:51.702Z,73.11
2018-09-25T14:22:51.766Z,73.40
2018-09-25T14:23:51.258Z,73.38
2018-09-25T14:24:51.319Z,70.54
2018-09-25T14:25:53.597Z,69.90
2018-09-25T14:27:50.660Z,67.12
2018-09-25T14:28:50.680Z,65.68
2018-09-25T14:29:50.307Z,66.19
2018-09-25T14:30:50.385Z,67.00
2018-09-25T14:31:50.355Z,64.40
2018-09-25T14:32:50.270Z,64.43
2018-09-25T14:33:50.549Z,63.19
2018-09-25T14:34:50.338Z,61.87
2018-09-25T14:37:50.300Z,59.28
2018-09-25T14:38:50.542Z,60.66
2018-09-25T14:39:50.844Z,59.89
2018-09-25T14:40:50.496Z,59.60
2018-09-25T14:41:50.482Z,58.51
2018-09-25T14:42:50.643Z,58.99
2018-09-25T14:43:51.054Z,59.28
2018-09-25T14:44:50.194Z,60.27
2018-09-25T14:45:50.442Z,60.08
2018-09-25T14:46:50.080Z,58.83
2018-09-25T14:47:50.201Z,58.25
2018-09-25T14:48:50.171Z,58.45
2018-09-25T14:49:50.127Z,58.25
2018-09-25T14:51:50.378Z,57.77
2018-09-25T14:52:50.033Z,58.32
2018-09-25T14:53:50.049Z,58.70
2018-09-25T14:54:50.018Z,58.42
2018-09-25T14:55:50.078Z,59.44
2018-09-25T14:56:49.959Z,60.88
2018-09-25T14:57:50.318Z,59.73
2018-09-25T14:58:49.939Z,59.54
2018-09-25T14:59:49.937Z,59.47
2018-09-25T15:00:50.101Z,58.51
2018-09-25T15:01:49.967Z,58.48
2018-09-25T15:02:49.890Z,58.77
2018-09-25T15:03:50.248Z,61.24
2018-09-25T15:04:49.872Z,64.02
2018-09-25T15:05:49.890Z,64.28
2018-09-25T15:06:49.864Z,63.19
2018-09-25T15:07:49.884Z,63.92
2018-09-25T15:08:49.813Z,65.05
2018-09-25T15:09:50.201Z,64.95
2018-09-25T15:10:49.811Z,65.81
2018-09-25T15:11:49.788Z,66.86
2018-09-25T15:12:49.768Z,68.17
2018-09-25T15:13:49.814Z,67.50
2018-09-25T15:14:49.741Z,68.55
2018-09-25T15:15:50.100Z,67.50
2018-09-25T15:16:49.752Z,66.96
2018-09-25T15:17:49.732Z,65.26
2018-09-25T15:18:49.759Z,65.39
2018-09-25T15:19:49.763Z,63.67
2018-09-25T15:20:49.699Z,63.09
2018-09-25T15:21:50.260Z,62.84
2018-09-25T15:22:49.907Z,61.69
2018-09-25T15:23:49.815Z,60.92
2018-09-25T15:24:49.940Z,61.75